Time;durP1;ratioP1;P1;durP2;ratioP2;P2;SDS_P1;SDS_P2;PMS_P1;PMS_P2;Temp;Humidity;BMP_temperature;BMP_pressure;BME280_temperature;BME280_humidity;BME280_pressure;Samples;Min_cycle;Max_cycle;Signal;HPM_P1;HPM_P2
2022/01/28 00:01:48;;;;;;;8.48;4.20;;;5.70;99.90;;;;;;5030033;28;20044;-76
2022/01/28 00:04:16;;;;;;;8.82;3.92;;;5.70;99.90;;;;;;5027815;28;20045;-76
2022/01/28 00:06:42;;;;;;;14.52;4.55;;;5.70;99.90;;;;;;5032261;28;20041;-76
2022/01/28 00:09:08;;;;;;;11.68;3.95;;;5.70;99.90;;;;;;5027783;28;20068;-75
2022/01/28 00:11:34;;;;;;;12.02;4.45;;;5.70;99.90;;;;;;5025236;28;20101;-75
2022/01/28 00:14:29;;;;;;;15.25;4.55;;;5.70;99.90;;;;;;5028291;28;20883;-76
2022/01/28 00:38:24;;;;;;;10.40;3.40;;;5.70;99.90;;;;;;5037472;28;20588;-75
2022/01/28 00:40:50;;;;;;;20.35;4.30;;;5.70;99.90;;;;;;5038066;28;20056;-76
2022/01/28 00:43:15;;;;;;;10.50;5.22;;;5.70;99.90;;;;;;5037226;28;20056;-75
2022/01/28 00:45:41;;;;;;;9.50;3.38;;;5.60;99.90;;;;;;5036721;28;20052;-76
2022/01/28 00:48:07;;;;;;;12.68;4.50;;;5.60;99.90;;;;;;5069639;28;20060;-76
2022/01/28 00:50:33;;;;;;;9.77;3.40;;;5.60;99.90;;;;;;5036726;28;20136;-75
2022/01/28 00:52:58;;;;;;;17.70;3.63;;;5.60;99.90;;;;;;5068844;28;20049;-75
2022/01/28 00:55:24;;;;;;;14.07;3.50;;;5.60;99.90;;;;;;5035121;28;20144;-74
2022/01/28 00:57:49;;;;;;;6.88;3.28;;;5.60;99.90;;;;;;5068396;28;20051;-76
2022/01/28 01:00:15;;;;;;;13.25;4.88;;;5.60;99.90;;;;;;5035650;28;20087;-74
2022/01/28 01:02:41;;;;;;;9.98;4.05;;;5.60;99.90;;;;;;5029412;28;20049;-75
2022/01/28 01:05:07;;;;;;;13.10;3.25;;;5.60;99.90;;;;;;5032015;28;20095;-76
2022/01/28 01:07:33;;;;;;;11.60;3.50;;;5.70;99.90;;;;;;5033219;28;20547;-77
2022/01/28 01:09:58;;;;;;;10.02;3.17;;;5.70;99.90;;;;;;5032852;28;20052;-75
2022/01/28 01:12:26;;;;;;;8.57;4.43;;;5.80;99.90;;;;;;5034188;28;20045;-75
2022/01/28 01:14:52;;;;;;;9.65;3.83;;;5.80;99.90;;;;;;5033633;28;20800;-76
2022/01/28 01:17:27;;;;;;;15.40;3.80;;;5.90;99.90;;;;;;5032453;28;20148;-76
2022/01/28 01:20:06;;;;;;;8.98;4.32;;;5.90;99.90;;;;;;5034124;28;20160;-76
2022/01/28 01:22:37;;;;;;;5.95;3.65;;;5.90;99.90;;;;;;5035401;28;20049;-76
2022/01/28 01:25:13;;;;;;;10.80;3.47;;;5.90;99.90;;;;;;5035718;28;20184;-75
2022/01/28 01:27:39;;;;;;;8.98;3.78;;;5.90;99.90;;;;;;5037778;28;20459;-74
2022/01/28 01:30:05;;;;;;;12.35;5.78;;;5.90;99.90;;;;;;5037561;28;20053;-75
2022/01/28 01:32:30;;;;;;;9.00;3.50;;;5.90;99.90;;;;;;5035460;28;20452;-75
2022/01/28 01:34:56;;;;;;;10.40;3.25;;;5.90;99.90;;;;;;5035417;28;20053;-75
2022/01/28 01:37:21;;;;;;;13.02;3.67;;;5.90;99.90;;;;;;5037427;28;20055;-76
2022/01/28 01:39:47;;;;;;;9.15;2.60;;;5.90;99.90;;;;;;5037112;28;20044;-76
2022/01/28 01:42:24;;;;;;;12.52;3.78;;;6.00;99.90;;;;;;5037931;28;20559;-76
2022/01/28 01:52:53;;;;;;;10.15;4.03;;;5.90;99.90;;;;;;5038508;28;20056;-75
2022/01/28 01:55:19;;;;;;;16.65;5.70;;;5.90;99.90;;;;;;5040074;28;20057;-75
2022/01/28 01:57:45;;;;;;;9.75;3.38;;;5.90;99.90;;;;;;5038850;28;20057;-76
2022/01/28 02:00:13;;;;;;;11.07;3.72;;;5.90;99.90;;;;;;5038003;28;20061;-76
2022/01/28 02:02:38;;;;;;;6.30;3.55;;;5.90;99.90;;;;;;5039011;28;20048;-75
2022/01/28 02:05:04;;;;;;;16.67;4.47;;;5.90;99.90;;;;;;5038000;28;20091;-76
2022/01/28 02:07:30;;;;;;;12.60;4.43;;;5.90;99.90;;;;;;5037974;28;20419;-76
2022/01/28 02:09:56;;;;;;;12.55;4.18;;;5.90;99.90;;;;;;5037785;28;20052;-76
2022/01/28 02:12:22;;;;;;;15.57;4.10;;;6.00;99.90;;;;;;5039396;28;20048;-76
2022/01/28 02:14:48;;;;;;;12.10;4.13;;;6.00;99.90;;;;;;5039127;28;20049;-76
2022/01/28 02:17:13;;;;;;;22.67;4.45;;;6.00;99.90;;;;;;5039505;28;20460;-76
2022/01/28 02:19:40;;;;;;;11.35;4.07;;;6.00;99.90;;;;;;5039560;28;20086;-76
2022/01/28 02:22:06;;;;;;;10.18;4.40;;;6.10;99.90;;;;;;5038181;28;20070;-76
2022/01/28 02:24:39;;;;;;;14.80;4.55;;;6.10;99.90;;;;;;5038605;28;20049;-76
2022/01/28 02:27:05;;;;;;;12.27;4.30;;;6.10;99.90;;;;;;5038373;28;20099;-77
2022/01/28 02:29:34;;;;;;;12.80;5.15;;;6.20;99.90;;;;;;5038182;28;20045;-76
2022/01/28 02:32:02;;;;;;;8.02;4.05;;;6.20;99.90;;;;;;5039821;28;20036;-76
2022/01/28 02:34:27;;;;;;;8.48;4.40;;;6.20;99.90;;;;;;5039897;28;20090;-77
2022/01/28 02:36:55;;;;;;;14.93;5.60;;;6.30;99.90;;;;;;5032459;28;20830;-77
2022/01/28 02:39:21;;;;;;;11.13;4.13;;;6.30;99.90;;;;;;5039925;28;20040;-76
2022/01/28 02:41:50;;;;;;;10.98;4.45;;;6.30;99.90;;;;;;5038413;28;20498;-76
2022/01/28 02:44:23;;;;;;;12.60;4.75;;;6.20;99.90;;;;;;5039472;28;20099;-75
2022/01/28 02:46:56;;;;;;;20.58;7.32;;;6.30;99.90;;;;;;5039717;28;20678;-76
2022/01/28 02:49:25;;;;;;;10.98;6.32;;;6.20;99.90;;;;;;5040129;28;20088;-75
2022/01/28 02:51:51;;;;;;;16.65;5.13;;;6.20;99.90;;;;;;5036090;28;20071;-76
2022/01/28 02:54:18;;;;;;;15.70;3.80;;;6.20;99.90;;;;;;5038347;28;20049;-75
2022/01/28 02:56:50;;;;;;;33.28;6.25;;;6.20;99.90;;;;;;5037004;28;20098;-75
2022/01/28 02:59:15;;;;;;;21.98;5.97;;;6.20;99.90;;;;;;5038539;28;20071;-75
2022/01/28 03:01:41;;;;;;;18.40;5.63;;;6.20;99.90;;;;;;5037772;28;20459;-75
2022/01/28 03:04:08;;;;;;;14.88;4.78;;;6.20;99.90;;;;;;5037162;28;20056;-75
2022/01/28 03:06:34;;;;;;;21.95;5.32;;;6.20;99.90;;;;;;5038321;28;20052;-75
2022/01/28 03:09:09;;;;;;;23.05;5.03;;;6.20;99.90;;;;;;5039943;28;20048;-75
2022/01/28 03:16:58;;;;;;;13.45;4.63;;;6.20;99.90;;;;;;5033801;28;20081;-75
2022/01/28 03:19:27;;;;;;;11.50;4.72;;;6.20;99.90;;;;;;5037510;28;20067;-76
2022/01/28 03:21:55;;;;;;;20.38;6.78;;;6.20;99.90;;;;;;5032612;28;20132;-76
2022/01/28 03:24:26;;;;;;;17.92;4.70;;;6.30;99.90;;;;;;5036976;28;20056;-75
2022/01/28 03:26:58;;;;;;;16.83;4.70;;;6.30;99.90;;;;;;5039594;28;20033;-75
2022/01/28 03:29:25;;;;;;;15.13;4.25;;;6.40;99.90;;;;;;5040575;28;20124;-76
2022/01/28 03:31:50;;;;;;;14.93;5.22;;;6.50;99.90;;;;;;5039233;28;20736;-75
2022/01/28 03:34:16;;;;;;;8.40;4.22;;;6.50;99.90;;;;;;5039052;28;20069;-75
2022/01/28 03:36:42;;;;;;;10.57;4.75;;;6.50;99.90;;;;;;5038632;28;20488;-76
2022/01/28 03:39:09;;;;;;;15.77;5.15;;;6.50;99.90;;;;;;5037442;28;20052;-75
2022/01/28 03:41:35;;;;;;;11.85;4.57;;;6.50;99.90;;;;;;5039053;28;20099;-75
2022/01/28 03:44:01;;;;;;;8.98;3.65;;;6.50;99.90;;;;;;5038122;28;20107;-75
2022/01/28 03:46:28;;;;;;;16.88;4.07;;;6.50;99.90;;;;;;5037610;28;20071;-75
2022/01/28 03:48:54;;;;;;;15.00;5.10;;;6.50;99.90;;;;;;5038650;28;20114;-75
2022/01/28 03:51:20;;;;;;;19.13;4.90;;;6.50;99.90;;;;;;5037558;28;20044;-74
2022/01/28 03:53:46;;;;;;;9.38;4.05;;;6.40;99.90;;;;;;5037415;28;20114;-74
2022/01/28 03:56:12;;;;;;;18.35;4.10;;;6.50;99.90;;;;;;5039504;28;20098;-74
2022/01/28 03:58:37;;;;;;;11.38;4.35;;;6.50;99.90;;;;;;5037961;28;20488;-74
2022/01/28 04:01:08;;;;;;;18.30;4.95;;;6.50;99.90;;;;;;5035855;28;20049;-74
2022/01/28 04:13:55;;;;;;;14.35;4.35;;;6.50;99.90;;;;;;5037797;28;20071;-74
2022/01/28 04:17:19;;;;;;;14.95;4.93;;;6.50;99.90;;;;;;5037512;28;20079;-73
2022/01/28 04:19:19;;;;;;;22.95;4.60;;;6.60;99.90;;;;;;5037397;28;20059;-74
2022/01/28 04:21:45;;;;;;;13.68;4.13;;;6.50;99.90;;;;;;5037073;28;20095;-74
2022/01/28 04:24:10;;;;;;;12.73;3.92;;;6.50;99.90;;;;;;5037020;28;20091;-74
2022/01/28 04:26:36;;;;;;;7.53;3.58;;;6.40;99.90;;;;;;5038040;28;20857;-74
2022/01/28 04:29:02;;;;;;;13.68;3.85;;;6.40;99.90;;;;;;5036946;28;20080;-74
2022/01/28 04:31:27;;;;;;;19.60;3.83;;;6.30;99.90;;;;;;5037765;28;20064;-74
2022/01/28 04:33:54;;;;;;;13.57;5.00;;;6.30;99.90;;;;;;5037409;28;20484;-73
2022/01/28 04:36:22;;;;;;;9.85;3.65;;;6.20;99.90;;;;;;5037983;28;20048;-74
2022/01/28 04:39:17;;;;;;;11.05;4.72;;;6.20;99.90;;;;;;5038847;28;20084;-74
2022/01/28 04:44:07;;;;;;;8.23;3.35;;;6.10;99.90;;;;;;5038341;28;20061;-74
2022/01/28 04:46:42;;;;;;;16.23;5.05;;;6.00;99.90;;;;;;5037608;28;20052;-73
2022/01/28 04:49:17;;;;;;;10.75;3.90;;;6.00;99.90;;;;;;5038151;28;20052;-74
2022/01/28 04:51:55;;;;;;;11.63;4.28;;;6.00;99.90;;;;;;5037215;28;20053;-74
2022/01/28 05:04:38;;;;;;;10.75;4.82;;;6.10;99.90;;;;;;5038261;28;20057;-73
2022/01/28 05:10:46;;;;;;;12.98;3.97;;;6.00;99.90;;;;;;5037935;28;20132;-73
2022/01/28 05:26:25;;;;;;;15.45;6.38;;;5.90;99.90;;;;;;5038610;28;20096;-73
2022/01/28 05:28:51;;;;;;;12.68;4.70;;;5.80;99.90;;;;;;5037419;28;20067;-73
2022/01/28 05:31:18;;;;;;;15.02;4.40;;;5.80;99.90;;;;;;5035776;28;20057;-73
2022/01/28 05:33:44;;;;;;;15.32;5.53;;;5.80;99.90;;;;;;5037825;28;20515;-73
2022/01/28 05:36:09;;;;;;;16.70;5.50;;;5.80;99.90;;;;;;5038609;28;20381;-73
2022/01/28 05:38:35;;;;;;;9.80;5.07;;;5.80;99.90;;;;;;5035917;28;20068;-73
2022/01/28 05:41:00;;;;;;;15.10;4.80;;;5.80;99.90;;;;;;5037990;28;20049;-73
2022/01/28 05:43:26;;;;;;;17.80;5.22;;;5.80;99.90;;;;;;5037666;28;20460;-72
2022/01/28 05:45:51;;;;;;;10.02;4.63;;;5.80;99.90;;;;;;5037007;28;20049;-73
2022/01/28 05:48:20;;;;;;;13.98;5.45;;;5.80;99.90;;;;;;5037589;28;20171;-73
2022/01/28 05:50:45;;;;;;;12.30;4.43;;;5.80;99.90;;;;;;5037483;28;20053;-73
2022/01/28 05:53:11;;;;;;;13.25;5.30;;;5.90;99.90;;;;;;5035503;28;20142;-73
2022/01/28 05:55:37;;;;;;;12.23;4.72;;;6.00;99.90;;;;;;5038334;28;20061;-72
2022/01/28 05:58:02;;;;;;;13.68;5.65;;;5.90;99.90;;;;;;5036084;28;20051;-72
2022/01/28 06:00:28;;;;;;;15.25;4.78;;;6.00;99.90;;;;;;5035537;28;20511;-73
2022/01/28 06:02:53;;;;;;;17.42;4.57;;;6.00;99.90;;;;;;5038079;28;20045;-73
2022/01/28 06:05:19;;;;;;;13.05;5.03;;;6.00;99.90;;;;;;5034235;28;20056;-72
2022/01/28 06:07:44;;;;;;;14.23;4.47;;;6.10;99.90;;;;;;5032633;28;20106;-73
2022/01/28 06:10:12;;;;;;;8.63;4.00;;;6.00;99.90;;;;;;5034040;28;20382;-72
2022/01/28 06:12:46;;;;;;;12.13;4.68;;;6.10;99.90;;;;;;5035132;28;20092;-72
2022/01/28 06:15:13;;;;;;;15.10;5.00;;;6.10;99.90;;;;;;5034384;28;20064;-72
2022/01/28 06:17:39;;;;;;;10.52;4.43;;;6.10;99.90;;;;;;5031989;28;20083;-73
2022/01/28 06:20:07;;;;;;;11.30;4.40;;;6.10;99.90;;;;;;5030979;28;20055;-73
2022/01/28 06:22:38;;;;;;;19.20;6.18;;;6.10;99.90;;;;;;5064143;28;20049;-72
2022/01/28 06:25:04;;;;;;;16.50;5.00;;;6.10;99.90;;;;;;5032464;28;20049;-72
2022/01/28 06:27:29;;;;;;;13.13;4.90;;;6.10;99.90;;;;;;5026021;28;20906;-73
2022/01/28 06:29:55;;;;;;;10.93;4.75;;;6.20;99.90;;;;;;5026584;28;20052;-73
2022/01/28 06:32:21;;;;;;;13.02;5.25;;;6.20;99.90;;;;;;5032706;28;20037;-72
2022/01/28 06:34:46;;;;;;;7.15;3.70;;;6.20;99.90;;;;;;5032476;28;20060;-73
2022/01/28 06:37:12;;;;;;;14.20;4.43;;;6.20;99.90;;;;;;5064830;28;20056;-72
2022/01/28 06:39:37;;;;;;;15.00;4.75;;;6.20;99.90;;;;;;5034683;28;20083;-73
2022/01/28 06:42:03;;;;;;;11.82;4.50;;;6.20;99.90;;;;;;5034079;28;20044;-72
2022/01/28 06:44:30;;;;;;;11.80;4.10;;;6.20;99.90;;;;;;5064396;28;20539;-72
2022/01/28 06:46:56;;;;;;;12.38;5.15;;;6.20;99.90;;;;;;5067456;28;20052;-72
2022/01/28 06:49:21;;;;;;;15.63;4.63;;;6.20;99.90;;;;;;5034406;28;20055;-72
2022/01/28 06:51:48;;;;;;;20.52;5.47;;;6.10;99.90;;;;;;5066286;28;20564;-72
2022/01/28 06:54:13;;;;;;;16.05;5.53;;;6.20;99.90;;;;;;5034787;28;20049;-72
2022/01/28 06:56:39;;;;;;;17.17;4.90;;;6.20;99.90;;;;;;5065381;28;20037;-72
2022/01/28 06:59:05;;;;;;;13.32;4.88;;;6.20;99.90;;;;;;5032201;28;20079;-72
2022/01/28 07:01:30;;;;;;;18.15;6.05;;;6.10;99.90;;;;;;5033428;28;20037;-72
2022/01/28 07:03:56;;;;;;;20.27;5.78;;;6.10;99.90;;;;;;5033612;28;20040;-71
2022/01/28 07:06:23;;;;;;;14.70;5.25;;;6.00;99.90;;;;;;5031966;28;20049;-72
2022/01/28 07:08:50;;;;;;;12.13;5.03;;;6.00;99.90;;;;;;5034500;28;20056;-72
2022/01/28 07:11:17;;;;;;;21.20;6.85;;;6.00;99.90;;;;;;5033807;28;20076;-72
2022/01/28 07:13:42;;;;;;;12.45;5.45;;;5.70;99.90;;;;;;5064252;28;20053;-72
2022/01/28 07:16:08;;;;;;;13.82;5.43;;;5.90;99.90;;;;;;5028247;28;20107;-72
2022/01/28 07:18:34;;;;;;;11.43;5.38;;;5.90;99.90;;;;;;5031981;28;20044;-72
2022/01/28 07:20:59;;;;;;;13.85;4.60;;;5.90;99.90;;;;;;5033824;28;20049;-72
2022/01/28 07:23:25;;;;;;;14.48;4.75;;;5.80;99.90;;;;;;5068791;28;20049;-71
2022/01/28 07:25:50;;;;;;;12.98;5.28;;;5.90;99.90;;;;;;5034717;28;20045;-72
2022/01/28 07:28:16;;;;;;;12.77;4.47;;;5.90;99.90;;;;;;5067111;28;20738;-73
2022/01/28 07:30:42;;;;;;;15.75;5.95;;;5.80;99.90;;;;;;5034193;28;20083;-73
2022/01/28 07:33:09;;;;;;;13.55;5.18;;;5.90;99.90;;;;;;5032167;28;20784;-73
2022/01/28 07:35:35;;;;;;;17.35;4.10;;;5.90;99.90;;;;;;5035729;28;20111;-74
2022/01/28 07:38:01;;;;;;;14.45;4.47;;;5.90;99.90;;;;;;5032951;28;20044;-73
2022/01/28 07:40:26;;;;;;;10.30;3.97;;;5.90;99.90;;;;;;5065991;28;20053;-74
2022/01/28 07:42:52;;;;;;;24.83;5.95;;;6.00;99.90;;;;;;5064746;28;20040;-74
2022/01/28 07:45:18;;;;;;;11.18;4.00;;;6.00;99.90;;;;;;5065603;28;20056;-74
2022/01/28 07:47:44;;;;;;;11.43;4.15;;;6.00;99.90;;;;;;5034771;28;20708;-74
2022/01/28 07:50:12;;;;;;;15.98;5.10;;;6.00;99.90;;;;;;5032511;28;20868;-74
2022/01/28 07:52:38;;;;;;;12.85;4.20;;;6.10;99.90;;;;;;5028883;28;20056;-74
2022/01/28 07:55:05;;;;;;;14.13;4.82;;;6.00;99.90;;;;;;5064260;28;20049;-75
2022/01/28 07:57:31;;;;;;;13.57;4.18;;;6.00;99.90;;;;;;5063704;28;20501;-74
2022/01/28 07:59:57;;;;;;;14.57;5.40;;;6.10;99.90;;;;;;5032767;28;20088;-74
2022/01/28 08:02:23;;;;;;;16.10;5.13;;;6.10;99.90;;;;;;5030962;28;20144;-75
2022/01/28 08:04:49;;;;;;;15.68;6.30;;;6.10;99.90;;;;;;5035734;28;20051;-75
2022/01/28 08:07:14;;;;;;;12.68;4.15;;;6.10;99.90;;;;;;5035837;28;20063;-74
2022/01/28 08:09:40;;;;;;;21.80;5.82;;;6.10;99.90;;;;;;5033198;28;20161;-74
2022/01/28 08:12:06;;;;;;;8.60;4.85;;;6.10;99.90;;;;;;5036228;28;20045;-74
2022/01/28 08:14:32;;;;;;;18.35;6.05;;;6.10;99.90;;;;;;5037050;28;20053;-74
2022/01/28 08:16:58;;;;;;;10.57;4.60;;;6.00;99.90;;;;;;5037918;28;20091;-74
2022/01/28 08:19:24;;;;;;;17.45;4.97;;;6.00;99.90;;;;;;5036582;28;20060;-74
2022/01/28 08:21:50;;;;;;;14.95;5.10;;;5.90;99.90;;;;;;5038538;28;20730;-74
2022/01/28 08:24:16;;;;;;;11.48;5.45;;;5.90;99.90;;;;;;5070388;28;20134;-74
2022/01/28 08:26:41;;;;;;;13.77;4.32;;;5.90;99.90;;;;;;5037627;28;20882;-74
2022/01/28 08:29:07;;;;;;;14.50;5.47;;;6.00;99.90;;;;;;5038006;28;20052;-74
2022/01/28 08:31:33;;;;;;;14.32;5.50;;;6.00;99.90;;;;;;5037359;28;20394;-74
2022/01/28 08:33:59;;;;;;;14.18;5.55;;;6.00;99.90;;;;;;5034328;28;20052;-74
2022/01/28 08:36:25;;;;;;;15.55;5.00;;;6.00;99.90;;;;;;5036270;28;20060;-74
2022/01/28 08:38:54;;;;;;;14.38;5.93;;;6.00;99.90;;;;;;5035325;28;20080;-74
2022/01/28 08:41:20;;;;;;;16.50;6.00;;;6.00;99.90;;;;;;5033665;28;20151;-74
2022/01/28 08:43:45;;;;;;;14.70;4.15;;;6.10;99.90;;;;;;5035173;28;20788;-74
2022/01/28 08:46:11;;;;;;;18.48;5.03;;;6.30;99.90;;;;;;5037018;28;20084;-74
2022/01/28 08:48:37;;;;;;;14.48;4.60;;;6.30;99.90;;;;;;5036474;28;20098;-74
2022/01/28 08:51:02;;;;;;;14.65;4.18;;;6.20;99.90;;;;;;5038396;28;20049;-74
2022/01/28 08:53:28;;;;;;;10.43;4.32;;;6.20;99.90;;;;;;5037081;28;20147;-74
2022/01/28 08:55:54;;;;;;;10.95;4.15;;;6.20;99.90;;;;;;5036144;28;20056;-74
2022/01/28 08:58:19;;;;;;;7.80;3.75;;;6.20;99.90;;;;;;5037412;28;20095;-74
2022/01/28 09:00:48;;;;;;;14.70;5.00;;;6.20;99.90;;;;;;5036807;28;20059;-74
2022/01/28 09:03:15;;;;;;;13.80;4.47;;;6.20;99.90;;;;;;5035650;28;20102;-74
2022/01/28 09:05:41;;;;;;;10.38;3.58;;;6.20;99.90;;;;;;5034787;28;20059;-74
2022/01/28 09:08:09;;;;;;;16.63;5.72;;;6.20;99.90;;;;;;5035823;28;20048;-74
2022/01/28 09:10:37;;;;;;;11.45;4.88;;;6.20;99.90;;;;;;5036167;28;20068;-74
2022/01/28 09:15:39;;;;;;;16.58;4.78;;;6.20;99.90;;;;;;5037616;28;20107;-74
2022/01/28 09:18:06;;;;;;;10.70;4.75;;;6.30;99.90;;;;;;5036837;28;20080;-74
2022/01/28 09:20:33;;;;;;;22.00;4.40;;;6.30;99.90;;;;;;5035489;28;20040;-74
2022/01/28 09:23:00;;;;;;;16.48;5.28;;;6.40;99.90;;;;;;5033922;28;20064;-75
2022/01/28 09:25:26;;;;;;;13.20;4.88;;;6.40;99.90;;;;;;5037763;28;20063;-81
2022/01/28 09:27:52;;;;;;;13.48;4.07;;;6.50;99.90;;;;;;5037251;28;20166;-81
2022/01/28 09:30:18;;;;;;;15.20;5.85;;;6.60;99.90;;;;;;5036745;28;20810;-81
2022/01/28 09:32:43;;;;;;;10.00;4.50;;;6.60;99.90;;;;;;5034972;28;20136;-74
2022/01/28 09:35:09;;;;;;;18.85;4.97;;;6.70;99.90;;;;;;5063654;28;20404;-74
2022/01/28 09:37:35;;;;;;;13.60;6.32;;;6.80;99.90;;;;;;5030764;28;20041;-74
2022/01/28 09:40:02;;;;;;;14.40;4.35;;;6.90;99.90;;;;;;5033211;28;20710;-74
2022/01/28 09:42:31;;;;;;;15.95;4.72;;;7.00;99.90;;;;;;5030264;28;20041;-74
2022/01/28 09:44:59;;;;;;;15.02;5.30;;;7.10;99.90;;;;;;5030471;28;20156;-74
2022/01/28 09:47:24;;;;;;;21.83;5.38;;;7.10;99.90;;;;;;5032379;28;20892;-74
2022/01/28 09:49:51;;;;;;;14.43;5.50;;;7.20;99.90;;;;;;5034744;28;20044;-74
2022/01/28 09:52:18;;;;;;;20.70;5.88;;;7.30;99.90;;;;;;5064292;28;20049;-73
2022/01/28 09:54:46;;;;;;;15.63;4.82;;;7.40;99.90;;;;;;5065351;28;20048;-73
2022/01/28 09:57:16;;;;;;;11.27;5.10;;;7.40;99.90;;;;;;5034579;28;20956;-71
2022/01/28 09:59:42;;;;;;;16.90;5.00;;;7.40;99.90;;;;;;5060949;28;20128;-73
2022/01/28 10:02:08;;;;;;;15.75;5.93;;;7.50;99.90;;;;;;5062889;28;20053;-72
2022/01/28 10:04:33;;;;;;;17.52;5.22;;;7.60;99.90;;;;;;5033025;28;20060;-73
2022/01/28 10:07:13;;;;;;;16.15;5.28;;;7.60;99.90;;;;;;5036780;28;20048;-73
2022/01/28 10:10:00;;;;;;;12.13;3.97;;;7.60;99.90;;;;;;5037249;28;20123;-72
2022/01/28 10:12:36;;;;;;;15.98;5.38;;;7.60;99.90;;;;;;5035113;28;20049;-74
2022/01/28 10:15:16;;;;;;;11.82;4.95;;;7.70;99.90;;;;;;5036262;28;20667;-73
2022/01/28 10:18:00;;;;;;;16.63;5.38;;;7.70;99.90;;;;;;5035628;28;20443;-73
2022/01/28 10:20:26;;;;;;;10.25;4.63;;;7.80;99.90;;;;;;5034395;28;20633;-73
2022/01/28 10:23:01;;;;;;;28.58;4.85;;;7.80;99.90;;;;;;5071274;28;20049;-75
2022/01/28 10:25:28;;;;;;;21.83;6.00;;;7.80;99.90;;;;;;5039730;28;20162;-78
2022/01/28 10:28:02;;;;;;;17.02;5.45;;;7.90;99.90;;;;;;5038829;28;20106;-78
2022/01/28 10:30:39;;;;;;;13.08;4.60;;;8.00;99.90;;;;;;4902467;28;10000707;-78
2022/01/28 10:33:16;;;;;;;9.50;5.75;;;8.00;99.90;;;;;;5033646;28;20407;-73
2022/01/28 10:35:58;;;;;;;15.43;5.13;;;8.00;99.90;;;;;;5061046;28;20091;-73
2022/01/28 10:38:33;;;;;;;18.67;4.60;;;8.00;99.90;;;;;;5031752;28;20626;-73
2022/01/28 10:41:07;;;;;;;19.63;5.47;;;7.90;99.90;;;;;;5028060;28;20037;-73
2022/01/28 10:44:00;;;;;;;16.50;5.80;;;7.90;99.90;;;;;;5029863;28;20052;-73
2022/01/28 10:46:30;;;;;;;15.52;4.85;;;8.00;99.90;;;;;;5027989;28;20063;-73
2022/01/28 10:48:58;;;;;;;14.30;4.82;;;8.00;99.90;;;;;;5030828;28;20041;-73
2022/01/28 10:51:41;;;;;;;10.50;5.18;;;8.00;99.90;;;;;;5032023;28;20048;-73
2022/01/28 10:54:12;;;;;;;13.10;5.13;;;8.10;99.90;;;;;;5032037;28;20075;-73
2022/01/28 10:56:57;;;;;;;11.77;4.63;;;8.20;99.90;;;;;;5034454;28;20155;-73
2022/01/28 10:59:27;;;;;;;15.52;4.90;;;8.20;99.90;;;;;;5030999;28;20060;-72
2022/01/28 11:01:54;;;;;;;24.52;5.05;;;8.20;99.90;;;;;;5025920;28;20041;-73
2022/01/28 11:04:21;;;;;;;11.82;5.15;;;8.20;99.90;;;;;;5030970;28;20052;-73
2022/01/28 11:06:48;;;;;;;14.98;4.80;;;8.20;99.90;;;;;;5033593;28;20886;-73
2022/01/28 11:09:16;;;;;;;12.57;5.60;;;8.30;99.90;;;;;;5066429;28;20549;-72
2022/01/28 11:11:43;;;;;;;17.75;5.35;;;8.30;99.90;;;;;;5033284;28;20059;-74
2022/01/28 11:14:08;;;;;;;13.93;5.43;;;8.40;99.90;;;;;;5032679;28;20591;-73
2022/01/28 11:16:35;;;;;;;13.57;4.32;;;8.40;99.90;;;;;;5034148;28;20047;-73
2022/01/28 11:19:01;;;;;;;20.40;5.18;;;8.50;99.90;;;;;;5066088;28;20041;-73
2022/01/28 11:21:44;;;;;;;13.10;4.80;;;8.50;99.90;;;;;;5032419;28;20041;-73
2022/01/28 11:24:45;;;;;;;10.13;3.97;;;8.60;99.90;;;;;;5065655;28;20079;-73
2022/01/28 11:27:17;;;;;;;16.02;4.20;;;8.90;99.90;;;;;;5031372;28;20049;-73
2022/01/28 11:29:43;;;;;;;9.57;4.03;;;8.60;99.90;;;;;;5064577;28;20056;-73
2022/01/28 11:32:15;;;;;;;13.15;3.70;;;8.60;99.90;;;;;;5030084;28;20300;-73
2022/01/28 11:34:57;;;;;;;8.57;4.13;;;8.50;99.90;;;;;;5026882;28;20052;-74
2022/01/28 11:37:26;;;;;;;19.27;6.28;;;8.40;99.90;;;;;;5028065;28;20092;-79
2022/01/28 11:39:51;;;;;;;20.52;4.10;;;8.40;99.90;;;;;;5048919;28;20091;-78
2022/01/28 11:42:23;;;;;;;10.77;5.05;;;8.40;99.90;;;;;;5018687;28;20132;-78
2022/01/28 11:45:06;;;;;;;13.32;4.88;;;8.30;99.90;;;;;;5058588;28;20862;-73
2022/01/28 11:47:59;;;;;;;17.02;4.07;;;8.20;99.90;;;;;;5034893;28;20084;-73
2022/01/28 11:50:25;;;;;;;11.48;4.03;;;8.20;99.90;;;;;;5038196;28;20087;-74
2022/01/28 11:52:53;;;;;;;10.02;3.95;;;8.00;99.90;;;;;;5036855;28;20056;-73
2022/01/28 11:55:23;;;;;;;11.52;4.07;;;8.00;99.90;;;;;;5069416;28;20044;-74
2022/01/28 11:58:00;;;;;;;14.27;4.28;;;7.90;99.90;;;;;;5034811;28;20585;-73
2022/01/28 12:00:47;;;;;;;11.82;4.78;;;8.50;99.90;;;;;;5034564;28;20060;-73
2022/01/28 12:03:31;;;;;;;12.30;3.60;;;8.00;99.90;;;;;;5033392;28;20118;-73
2022/01/28 12:05:57;;;;;;;11.65;4.43;;;8.10;99.90;;;;;;5062533;28;20033;-73
2022/01/28 12:08:30;;;;;;;9.68;3.72;;;8.10;99.90;;;;;;5029170;28;20049;-73
2022/01/28 12:10:57;;;;;;;13.70;5.03;;;8.10;99.90;;;;;;5027062;28;20723;-73
2022/01/28 12:13:48;;;;;;;17.08;4.55;;;8.10;99.90;;;;;;5030602;28;20583;-73
2022/01/28 12:16:25;;;;;;;19.40;3.70;;;7.90;99.90;;;;;;5022506;28;20049;-75
2022/01/28 12:18:57;;;;;;;8.80;4.00;;;8.10;99.90;;;;;;5049122;28;20482;-74
2022/01/28 12:21:28;;;;;;;11.88;3.47;;;8.00;99.90;;;;;;5018180;28;20173;-74
2022/01/28 12:24:15;;;;;;;11.00;4.28;;;8.00;99.90;;;;;;5034343;28;20095;-73
2022/01/28 12:27:02;;;;;;;13.00;4.30;;;8.10;99.90;;;;;;5035977;28;20099;-70
2022/01/28 12:29:36;;;;;;;16.52;4.53;;;8.20;99.90;;;;;;5038096;28;20091;-73
2022/01/28 12:32:03;;;;;;;12.63;4.28;;;8.20;99.90;;;;;;5038190;28;20063;-73
2022/01/28 12:34:29;;;;;;;8.88;4.07;;;8.30;99.90;;;;;;5037536;28;20148;-74
2022/01/28 12:36:58;;;;;;;11.88;4.43;;;8.20;99.90;;;;;;5037024;28;20067;-74
2022/01/28 12:39:35;;;;;;;13.48;4.47;;;8.20;99.90;;;;;;5035654;28;20053;-76
2022/01/28 12:42:06;;;;;;;12.02;4.45;;;8.30;99.90;;;;;;5038403;28;20858;-74
2022/01/28 12:44:33;;;;;;;11.25;4.93;;;8.10;99.90;;;;;;5037868;28;20980;-74
2022/01/28 12:47:04;;;;;;;9.23;3.85;;;8.70;99.90;;;;;;5035732;28;20752;-74
2022/01/28 12:49:33;;;;;;;14.52;5.03;;;8.10;99.90;;;;;;5036371;28;20156;-74
2022/01/28 12:52:02;;;;;;;10.93;3.63;;;8.10;99.90;;;;;;5034580;28;20748;-73
2022/01/28 12:54:40;;;;;;;11.98;5.72;;;8.10;99.90;;;;;;5033248;28;20060;-77
2022/01/28 12:57:11;;;;;;;11.35;3.75;;;8.10;99.90;;;;;;5033538;28;20204;-73
2022/01/28 12:59:38;;;;;;;14.13;4.65;;;8.20;99.90;;;;;;5035416;28;20048;-74
2022/01/28 13:02:04;;;;;;;11.35;4.05;;;8.10;99.90;;;;;;5034993;28;20061;-74
2022/01/28 13:04:49;;;;;;;11.20;4.45;;;8.10;99.90;;;;;;5034977;28;20959;-73
2022/01/28 13:10:07;;;;;;;8.88;3.90;;;8.20;99.90;;;;;;5033320;28;20724;-74
2022/01/28 13:12:33;;;;;;;13.25;3.72;;;8.30;99.90;;;;;;5031813;28;20033;-73
2022/01/28 13:15:10;;;;;;;17.52;4.50;;;8.40;99.90;;;;;;5029475;28;20922;-73
2022/01/28 13:17:36;;;;;;;17.35;4.95;;;8.40;99.90;;;;;;5032462;28;20087;-74
2022/01/28 13:20:05;;;;;;;9.85;4.22;;;8.40;99.90;;;;;;5020358;28;20151;-73
2022/01/28 13:22:32;;;;;;;11.05;4.00;;;8.50;99.90;;;;;;5029411;28;20049;-73
2022/01/28 13:24:59;;;;;;;15.70;4.03;;;8.50;99.90;;;;;;5030582;28;20062;-73
2022/01/28 13:27:41;;;;;;;15.07;3.90;;;8.40;99.90;;;;;;5060511;28;20633;-72
2022/01/28 13:30:13;;;;;;;6.13;3.05;;;8.30;99.90;;;;;;5026449;28;20045;-72
2022/01/28 13:32:41;;;;;;;11.00;3.97;;;8.20;99.90;;;;;;5025716;28;20087;-72
2022/01/28 13:35:15;;;;;;;9.80;4.05;;;8.20;99.90;;;;;;5059113;28;20049;-73
2022/01/28 13:38:00;;;;;;;9.13;4.13;;;8.10;99.90;;;;;;5029002;28;20044;-73
2022/01/28 13:40:28;;;;;;;10.40;3.58;;;8.10;99.90;;;;;;5031704;28;20055;-73
2022/01/28 13:43:02;;;;;;;14.10;4.00;;;8.10;99.90;;;;;;5034142;28;20138;-73
2022/01/28 13:45:54;;;;;;;;;;;8.20;99.90;;;;;;5032009;28;20814;-72
2022/01/28 13:48:32;;;;;;;5.80;3.40;;;8.20;99.90;;;;;;5056300;28;19975;-73
2022/01/28 13:51:04;;;;;;;10.60;4.50;;;8.30;99.90;;;;;;5032773;28;20049;-73
2022/01/28 13:54:15;;;;;;;12.93;4.50;;;8.40;99.90;;;;;;5065606;28;20122;-73
2022/01/28 13:56:46;;;;;;;7.40;3.58;;;8.40;99.90;;;;;;5031615;28;20049;-73
2022/01/28 13:59:14;;;;;;;11.02;3.85;;;8.40;99.90;;;;;;5033116;28;20119;-73
2022/01/28 14:01:45;;;;;;;10.20;3.53;;;8.40;99.90;;;;;;5029798;28;20056;-73
2022/01/28 14:04:20;;;;;;;10.80;3.55;;;8.40;99.90;;;;;;5038137;28;20115;-73
2022/01/28 14:06:45;;;;;;;12.02;3.55;;;8.40;99.90;;;;;;5051455;28;20325;-73
2022/01/28 14:09:24;;;;;;;16.65;3.17;;;8.30;99.90;;;;;;5018553;28;20115;-73
2022/01/28 14:11:58;;;;;;;14.18;3.75;;;8.20;99.90;;;;;;5018923;28;20131;-73
2022/01/28 14:14:47;;;;;;;11.80;3.40;;;8.60;99.90;;;;;;5017442;28;20127;-73
2022/01/28 14:17:12;;;;;;;9.13;3.65;;;8.10;99.90;;;;;;5018035;28;20061;-72
2022/01/28 14:19:41;;;;;;;14.98;4.65;;;8.00;99.90;;;;;;5016786;28;20056;-73